createdAt,value
2022-10-31T00:02:12.865Z,24.33
2022-10-31T00:04:40.050Z,22.67
2022-10-31T00:07:13.597Z,27.42
2022-10-31T00:09:47.622Z,27.48
2022-10-31T00:12:21.539Z,27.92
2022-10-31T00:14:55.627Z,26.50
2022-10-31T00:17:35.508Z,30.02
2022-10-31T00:20:12.749Z,30.58
2022-10-31T00:22:39.839Z,32.50
2022-10-31T00:25:07.093Z,34.00
2022-10-31T00:27:40.788Z,34.17
2022-10-31T00:30:08.377Z,36.85
2022-10-31T00:32:42.045Z,37.35
2022-10-31T00:35:09.264Z,37.63
2022-10-31T00:37:36.374Z,39.45
2022-10-31T00:40:09.636Z,40.58
2022-10-31T00:42:36.710Z,39.15
2022-10-31T00:45:10.898Z,42.03
2022-10-31T00:47:38.171Z,40.67
2022-10-31T00:50:06.148Z,39.85
2022-10-31T00:52:39.666Z,43.20
2022-10-31T00:55:06.938Z,42.53
2022-10-31T00:57:40.796Z,40.83
2022-10-31T01:00:08.268Z,45.97
2022-10-31T01:02:35.900Z,44.50
2022-10-31T01:05:09.620Z,38.95
2022-10-31T01:07:41.082Z,43.20
2022-10-31T01:10:15.789Z,45.50
2022-10-31T01:12:46.609Z,52.17
2022-10-31T01:15:28.668Z,51.17
2022-10-31T01:18:02.735Z,47.63
2022-10-31T01:20:36.651Z,47.65
2022-10-31T01:23:03.868Z,51.63
2022-10-31T01:25:31.153Z,40.15
2022-10-31T01:28:04.850Z,42.17
2022-10-31T01:30:31.947Z,40.58
2022-10-31T01:32:59.609Z,43.40
2022-10-31T01:35:33.725Z,44.90
2022-10-31T01:38:00.932Z,42.97
2022-10-31T01:40:37.768Z,40.42
2022-10-31T01:43:04.929Z,43.35
2022-10-31T01:45:32.085Z,38.47
2022-10-31T01:48:05.612Z,42.28
2022-10-31T01:50:34.425Z,41.88
2022-10-31T01:53:08.653Z,40.90
2022-10-31T01:55:37.242Z,41.22
2022-10-31T01:58:15.746Z,39.50
2022-10-31T02:00:44.941Z,40.45
2022-10-31T02:03:12.399Z,39.05
2022-10-31T02:05:46.716Z,39.85
2022-10-31T02:08:31.176Z,39.47
2022-10-31T02:11:05.750Z,38.70
2022-10-31T02:13:32.895Z,34.30
2022-10-31T02:16:06.679Z,38.17
2022-10-31T02:18:40.814Z,35.25
2022-10-31T02:21:17.814Z,33.80
2022-10-31T02:24:02.411Z,35.10
2022-10-31T02:26:54.710Z,33.85
2022-10-31T02:29:27.661Z,34.17
2022-10-31T02:32:06.797Z,33.03
2022-10-31T02:34:44.458Z,34.95
2022-10-31T02:37:44.681Z,34.28
2022-10-31T02:40:18.011Z,34.22
2022-10-31T02:42:54.872Z,33.28
2022-10-31T02:45:31.086Z,34.65
2022-10-31T02:48:06.820Z,31.05
2022-10-31T02:50:35.951Z,31.27
2022-10-31T02:53:03.726Z,29.95
2022-10-31T02:55:37.664Z,30.88
2022-10-31T02:58:05.050Z,30.10
2022-10-31T03:03:11.695Z,29.35
2022-10-31T03:06:08.671Z,27.38
2022-10-31T03:08:52.195Z,27.40
2022-10-31T03:11:26.768Z,28.80
2022-10-31T03:13:58.364Z,28.58
2022-10-31T03:16:48.743Z,29.00
2022-10-31T03:19:27.652Z,26.88
2022-10-31T03:22:06.796Z,27.80
2022-10-31T03:24:37.416Z,29.02
2022-10-31T03:27:05.069Z,27.10
2022-10-31T03:29:41.714Z,28.40
2022-10-31T03:32:11.431Z,27.48
2022-10-31T03:34:46.886Z,26.45
2022-10-31T03:37:16.723Z,28.50
2022-10-31T03:39:51.780Z,33.10
2022-10-31T03:42:29.666Z,31.05
2022-10-31T03:45:08.685Z,32.47
2022-10-31T03:47:37.352Z,33.75
2022-10-31T03:50:11.877Z,30.02
2022-10-31T03:52:45.571Z,30.90
2022-10-31T03:55:25.779Z,36.20
2022-10-31T03:58:03.200Z,33.63
2022-10-31T04:00:32.081Z,29.92
2022-10-31T04:03:08.606Z,34.85
2022-10-31T04:05:44.584Z,35.25
2022-10-31T04:08:20.627Z,31.23
2022-10-31T04:10:49.693Z,37.08
2022-10-31T04:15:59.677Z,36.80
2022-10-31T04:18:40.818Z,34.15
2022-10-31T04:21:15.838Z,38.38
2022-10-31T04:23:43.111Z,38.97
2022-10-31T04:26:12.466Z,34.35
2022-10-31T04:28:46.711Z,35.30
2022-10-31T04:31:14.174Z,39.45
2022-10-31T04:33:54.964Z,42.80
2022-10-31T04:36:22.116Z,40.67
2022-10-31T04:38:49.284Z,39.22
2022-10-31T04:41:22.731Z,42.35
2022-10-31T04:43:49.923Z,46.10
2022-10-31T04:46:17.167Z,46.38
2022-10-31T04:48:50.713Z,42.50
2022-10-31T04:51:17.885Z,41.42
2022-10-31T04:53:51.806Z,41.40
2022-10-31T04:56:18.939Z,36.30
2022-10-31T04:58:46.037Z,39.17
2022-10-31T05:01:20.935Z,37.80
2022-10-31T05:03:48.283Z,41.03
2022-10-31T05:06:23.706Z,40.88
2022-10-31T05:08:50.952Z,42.92
2022-10-31T05:11:18.086Z,43.25
2022-10-31T05:13:51.815Z,44.13
2022-10-31T05:16:39.613Z,44.60
2022-10-31T05:19:13.914Z,36.75
2022-10-31T05:21:41.181Z,39.35
2022-10-31T05:24:08.530Z,43.25
2022-10-31T05:26:41.851Z,35.47
2022-10-31T05:29:09.072Z,41.67
2022-10-31T05:31:36.159Z,35.05
2022-10-31T05:34:09.692Z,35.85
2022-10-31T05:36:36.910Z,37.22
2022-10-31T05:39:10.850Z,36.25
2022-10-31T05:41:38.034Z,33.95
2022-10-31T05:44:05.225Z,33.38
2022-10-31T05:46:38.834Z,30.35
2022-10-31T05:49:06.077Z,31.58
2022-10-31T05:51:33.222Z,30.50
2022-10-31T05:54:08.824Z,31.60
2022-10-31T05:56:37.980Z,28.92
2022-10-31T05:59:05.102Z,29.85
2022-10-31T06:01:38.990Z,30.52
2022-10-31T06:04:06.326Z,29.98
2022-10-31T06:06:33.410Z,27.65
2022-10-31T06:09:06.733Z,28.35
2022-10-31T06:11:33.996Z,29.27
2022-10-31T06:14:07.852Z,26.38
2022-10-31T06:16:54.654Z,27.55
2022-10-31T06:19:28.865Z,25.35
2022-10-31T06:21:56.110Z,27.38
2022-10-31T06:24:23.184Z,27.67
2022-10-31T06:26:56.739Z,25.05
2022-10-31T06:29:24.030Z,27.88
2022-10-31T06:31:59.886Z,29.58
2022-10-31T06:34:27.191Z,26.10
2022-10-31T06:36:54.291Z,27.80
2022-10-31T06:39:27.720Z,27.27
2022-10-31T06:41:54.907Z,25.40
2022-10-31T06:44:28.790Z,26.35
2022-10-31T06:46:56.213Z,24.33
2022-10-31T06:49:23.335Z,23.90
2022-10-31T06:51:57.766Z,25.10
2022-10-31T06:54:24.988Z,25.40
2022-10-31T06:56:58.769Z,27.02
2022-10-31T06:59:26.008Z,26.50
2022-10-31T07:01:59.880Z,27.52
2022-10-31T07:04:27.287Z,29.77
2022-10-31T07:07:00.980Z,28.23
2022-10-31T07:09:28.165Z,27.90
2022-10-31T07:11:55.326Z,27.90
2022-10-31T07:14:28.797Z,28.60
2022-10-31T07:17:15.668Z,26.38
2022-10-31T07:19:49.827Z,24.50
2022-10-31T07:22:17.007Z,25.95
2022-10-31T07:24:50.910Z,24.00
2022-10-31T07:27:18.179Z,24.35
2022-10-31T07:29:45.295Z,22.10
2022-10-31T07:32:18.856Z,21.60
2022-10-31T07:34:47.556Z,22.08
2022-10-31T07:37:21.895Z,21.73
2022-10-31T07:39:49.049Z,20.83
2022-10-31T07:42:16.127Z,21.63
2022-10-31T07:44:51.516Z,17.45
2022-10-31T07:47:22.354Z,18.75
2022-10-31T07:49:55.784Z,17.25
2022-10-31T07:52:22.894Z,15.88
2022-10-31T07:54:56.906Z,15.77
2022-10-31T07:57:25.140Z,15.88
2022-10-31T07:59:52.569Z,14.88
2022-10-31T08:02:27.024Z,16.15
2022-10-31T08:04:57.171Z,15.57
2022-10-31T08:07:33.975Z,14.38
2022-10-31T08:10:01.223Z,15.55
2022-10-31T08:12:28.317Z,14.80
2022-10-31T08:15:01.800Z,15.15
2022-10-31T08:17:38.955Z,14.13
2022-10-31T08:20:12.910Z,15.23
2022-10-31T08:22:43.686Z,15.65
2022-10-31T08:25:11.052Z,14.43
2022-10-31T08:27:44.878Z,12.93
2022-10-31T08:30:12.328Z,15.13
2022-10-31T08:32:39.482Z,14.63
2022-10-31T08:35:12.896Z,15.85
2022-10-31T08:37:39.996Z,14.20
2022-10-31T08:40:07.722Z,13.68
2022-10-31T08:42:41.915Z,14.25
2022-10-31T08:45:09.174Z,13.07
2022-10-31T08:47:42.938Z,12.40
2022-10-31T08:50:10.141Z,11.93
2022-10-31T08:53:03.047Z,11.35
2022-10-31T08:55:30.927Z,8.77
2022-10-31T08:57:59.301Z,8.05
2022-10-31T09:00:34.100Z,8.32
2022-10-31T09:03:05.794Z,8.13
2022-10-31T09:05:33.461Z,8.02
2022-10-31T09:08:11.679Z,7.05
2022-10-31T09:10:42.181Z,7.65
2022-10-31T09:13:18.844Z,6.63
2022-10-31T09:15:46.900Z,6.75
2022-10-31T09:18:27.878Z,7.32
2022-10-31T09:21:08.708Z,7.78
2022-10-31T09:23:42.937Z,6.70
2022-10-31T09:26:10.091Z,6.78
2022-10-31T09:28:37.448Z,6.72
2022-10-31T09:31:10.820Z,6.93
2022-10-31T09:33:38.301Z,6.03
2022-10-31T09:36:05.463Z,6.28
2022-10-31T09:38:38.825Z,6.30
2022-10-31T09:41:15.595Z,6.10
2022-10-31T09:43:51.910Z,6.60
2022-10-31T09:46:31.846Z,6.47
2022-10-31T09:49:32.925Z,7.40
2022-10-31T09:55:19.812Z,5.88
2022-10-31T09:57:47.288Z,6.35
2022-10-31T10:00:26.873Z,6.95
2022-10-31T10:03:03.370Z,6.40
2022-10-31T10:05:49.899Z,6.47
2022-10-31T10:08:25.414Z,6.78
2022-10-31T10:11:01.865Z,6.55
2022-10-31T10:13:38.286Z,7.05
2022-10-31T16:57:06.988Z,7.85
2022-10-31T16:59:34.684Z,8.75
2022-10-31T17:02:03.271Z,9.07
2022-10-31T17:07:09.167Z,8.43
2022-10-31T17:09:43.174Z,8.13
2022-10-31T17:12:16.128Z,8.90
2022-10-31T17:14:50.138Z,9.85
2022-10-31T17:17:17.332Z,9.77
2022-10-31T17:19:44.417Z,10.10
2022-10-31T17:22:21.988Z,10.63
2022-10-31T17:24:49.303Z,10.85
2022-10-31T17:27:16.420Z,11.02
2022-10-31T17:29:50.185Z,10.40
2022-10-31T17:32:18.199Z,10.63
2022-10-31T17:34:45.382Z,11.20
2022-10-31T17:37:18.959Z,10.60
2022-10-31T17:39:46.209Z,11.52
2022-10-31T17:42:20.122Z,12.15
2022-10-31T17:44:47.933Z,11.95
2022-10-31T17:47:15.039Z,13.25
2022-10-31T17:49:49.070Z,14.70
2022-10-31T17:52:16.321Z,16.42
2022-10-31T17:54:49.994Z,15.80
2022-10-31T17:57:24.177Z,15.70
2022-10-31T17:59:58.373Z,16.17
2022-10-31T18:02:25.830Z,17.35
2022-10-31T18:07:27.066Z,19.60
2022-10-31T18:09:54.340Z,17.63
2022-10-31T18:12:28.106Z,18.50
2022-10-31T18:15:01.889Z,17.30
2022-10-31T18:17:38.142Z,18.98
2022-10-31T18:20:14.904Z,18.77
2022-10-31T18:22:49.069Z,19.20
2022-10-31T18:25:16.587Z,18.60
2022-10-31T18:30:18.044Z,18.63
2022-10-31T18:32:45.330Z,22.83
2022-10-31T18:35:19.112Z,22.17
2022-10-31T18:37:46.320Z,23.60
2022-10-31T18:40:14.023Z,22.15
2022-10-31T18:42:48.062Z,21.95
2022-10-31T18:45:32.588Z,20.92
2022-10-31T18:48:08.128Z,22.83
2022-10-31T18:50:35.290Z,22.95
2022-10-31T18:53:02.834Z,23.98
2022-10-31T18:55:37.110Z,22.73
2022-10-31T18:58:11.131Z,24.25
2022-10-31T19:00:52.099Z,25.02
2022-10-31T19:03:24.888Z,24.92
2022-10-31T19:06:03.281Z,28.40
2022-10-31T19:08:30.453Z,27.27
2022-10-31T19:11:10.224Z,27.75
2022-10-31T19:13:37.619Z,26.63
2022-10-31T19:16:21.029Z,27.60
2022-10-31T19:18:48.258Z,28.92
2022-10-31T19:21:16.624Z,24.30
2022-10-31T19:23:51.003Z,26.92
2022-10-31T19:26:18.181Z,27.13
2022-10-31T19:28:52.036Z,30.40
2022-10-31T19:31:19.619Z,30.42
2022-10-31T19:36:21.994Z,29.48
2022-10-31T19:38:50.323Z,30.73
2022-10-31T19:41:26.148Z,27.02
2022-10-31T19:43:54.075Z,30.92
2022-10-31T19:46:40.072Z,31.70
2022-10-31T19:49:17.129Z,30.97
2022-10-31T19:51:44.331Z,29.77
2022-10-31T19:54:12.422Z,27.85
2022-10-31T19:56:46.004Z,29.73
2022-10-31T19:59:20.079Z,30.95
2022-10-31T20:01:54.146Z,30.17
2022-10-31T20:04:21.445Z,31.75
2022-10-31T20:06:54.967Z,32.20
2022-10-31T20:09:22.268Z,28.33
2022-10-31T20:11:49.364Z,32.17
2022-10-31T20:14:24.077Z,29.48
2022-10-31T20:16:51.304Z,31.23
2022-10-31T20:19:24.990Z,31.95
2022-10-31T20:21:52.497Z,29.33
2022-10-31T20:24:19.663Z,29.63
2022-10-31T20:26:52.991Z,29.98
2022-10-31T20:29:20.330Z,27.45
2022-10-31T20:31:55.076Z,25.95
2022-10-31T20:34:25.217Z,28.92
2022-10-31T20:36:52.400Z,27.40
2022-10-31T20:39:25.989Z,30.20
2022-10-31T20:41:53.864Z,27.95
2022-10-31T20:44:27.941Z,29.50
2022-10-31T20:46:55.414Z,26.63
2022-10-31T20:49:29.072Z,23.70
2022-10-31T20:51:56.933Z,22.15
2022-10-31T20:54:24.148Z,20.63
2022-10-31T20:56:58.060Z,20.45
2022-10-31T20:59:32.040Z,19.88
2022-10-31T21:02:06.711Z,19.13
2022-10-31T21:04:47.012Z,18.58
2022-10-31T21:07:21.155Z,17.48
2022-10-31T21:09:48.464Z,17.52
2022-10-31T21:12:15.593Z,17.40
2022-10-31T21:14:50.064Z,17.83
2022-10-31T21:17:17.486Z,16.65
2022-10-31T21:19:51.123Z,16.55
2022-10-31T21:22:18.291Z,16.77
2022-10-31T21:24:51.944Z,15.50
2022-10-31T21:27:19.135Z,16.38
2022-10-31T21:29:52.977Z,15.35
2022-10-31T21:32:20.255Z,14.50
2022-10-31T21:34:50.118Z,13.18
2022-10-31T21:37:24.059Z,14.77
2022-10-31T21:39:51.431Z,14.60
2022-10-31T21:42:25.156Z,13.88
2022-10-31T21:44:52.339Z,13.73
2022-10-31T21:47:19.457Z,13.20
2022-10-31T21:49:53.069Z,13.45
2022-10-31T21:52:20.234Z,13.63
2022-10-31T21:54:54.100Z,13.00
2022-10-31T21:57:42.030Z,12.65
2022-10-31T22:00:16.323Z,12.90
2022-10-31T22:02:43.503Z,14.68
2022-10-31T22:05:10.616Z,13.30
2022-10-31T22:07:44.047Z,13.73
2022-10-31T22:10:11.318Z,12.82
2022-10-31T22:12:46.211Z,11.95
2022-10-31T22:15:13.420Z,11.30
2022-10-31T22:17:40.537Z,12.23
2022-10-31T22:20:15.917Z,10.85
2022-10-31T22:22:49.971Z,11.98
2022-10-31T22:25:17.341Z,10.63
2022-10-31T22:27:51.073Z,10.45
2022-10-31T22:30:18.297Z,11.18
2022-10-31T22:32:45.482Z,11.95
2022-10-31T22:35:18.980Z,11.02
2022-10-31T22:37:46.378Z,10.02
2022-10-31T22:40:19.998Z,10.68
2022-10-31T22:42:47.450Z,11.48
2022-10-31T22:45:21.135Z,11.15
2022-10-31T22:47:48.377Z,11.43
2022-10-31T22:50:15.529Z,9.73
2022-10-31T22:52:48.992Z,10.63
2022-10-31T22:55:17.476Z,10.30
2022-10-31T22:57:57.005Z,10.18
2022-10-31T23:00:24.373Z,9.90
2022-10-31T23:02:51.849Z,10.32
2022-10-31T23:05:25.000Z,9.68
2022-10-31T23:07:52.310Z,12.07
2022-10-31T23:10:25.991Z,11.02
2022-10-31T23:13:12.427Z,11.50
2022-10-31T23:15:45.980Z,10.60
2022-10-31T23:18:19.048Z,11.30
2022-10-31T23:21:04.153Z,11.68
2022-10-31T23:23:34.697Z,10.77
2022-10-31T23:26:27.136Z,11.60
2022-10-31T23:28:54.580Z,10.77
2022-10-31T23:31:21.682Z,10.55
2022-10-31T23:33:55.013Z,9.45
2022-10-31T23:36:22.339Z,9.90
2022-10-31T23:38:57.051Z,12.07
2022-10-31T23:41:24.290Z,12.07
2022-10-31T23:43:51.459Z,11.48
2022-10-31T23:46:25.010Z,10.50
2022-10-31T23:48:53.614Z,12.63
2022-10-31T23:51:27.009Z,13.20
2022-10-31T23:53:54.293Z,11.27
2022-10-31T23:56:27.994Z,10.90
2022-10-31T23:59:02.310Z,11.07
